createdAt,value
2018-08-13T00:00:23.075Z,13.32
2018-08-13T00:01:58.584Z,13.30
2018-08-13T00:03:35.555Z,13.26
2018-08-13T00:05:11.699Z,13.32
2018-08-13T00:08:30.934Z,13.22
2018-08-13T00:10:07.535Z,13.19
2018-08-13T00:11:43.014Z,13.12
2018-08-13T00:13:18.954Z,13.22
2018-08-13T00:14:59.496Z,13.15
2018-08-13T00:16:37.434Z,13.12
2018-08-13T00:18:17.865Z,13.08
2018-08-13T00:19:53.716Z,13.03
2018-08-13T00:23:18.001Z,13.13
2018-08-13T00:24:53.055Z,13.11
2018-08-13T00:26:28.121Z,13.20
2018-08-13T00:28:05.270Z,13.16
2018-08-13T00:29:40.685Z,13.22
2018-08-13T00:31:16.520Z,13.21
2018-08-13T00:32:52.376Z,13.26
2018-08-13T00:34:28.237Z,13.31
2018-08-13T00:36:04.669Z,13.37
2018-08-13T00:37:41.951Z,13.35
2018-08-13T00:39:17.344Z,13.39
2018-08-13T00:40:54.340Z,13.37
2018-08-13T00:42:29.354Z,13.38
2018-08-13T00:44:05.276Z,13.45
2018-08-13T00:45:40.429Z,13.36
2018-08-13T00:47:15.389Z,13.30
2018-08-13T00:50:49.139Z,13.22
2018-08-13T00:52:24.693Z,13.29
2018-08-13T00:55:39.930Z,13.26
2018-08-13T00:57:14.880Z,13.33
2018-08-13T00:58:49.758Z,13.28
2018-08-13T01:00:26.023Z,13.32
2018-08-13T01:02:00.977Z,13.25
2018-08-13T01:03:35.787Z,13.33
2018-08-13T01:05:10.740Z,13.35
2018-08-13T01:06:45.746Z,13.37
2018-08-13T01:08:20.915Z,13.44
2018-08-13T01:09:55.755Z,13.39
2018-08-13T01:11:30.708Z,13.46
2018-08-13T01:13:05.570Z,13.42
2018-08-13T01:14:41.484Z,13.50
2018-08-13T01:16:17.821Z,13.49
2018-08-13T01:17:52.701Z,13.59
2018-08-13T01:19:28.181Z,13.50
2018-08-13T01:22:43.474Z,13.54
2018-08-13T01:24:21.104Z,13.50
2018-08-13T01:25:56.975Z,13.54
2018-08-13T01:27:32.642Z,13.54
2018-08-13T01:29:08.675Z,13.49
2018-08-13T01:30:44.816Z,13.50
2018-08-13T01:32:20.733Z,13.60
2018-08-13T01:33:57.642Z,13.50
2018-08-13T01:35:32.475Z,13.44
2018-08-13T01:37:09.181Z,13.42
2018-08-13T01:38:44.029Z,13.44
2018-08-13T01:40:22.503Z,13.43
2018-08-13T01:42:00.473Z,13.44
2018-08-13T01:43:36.266Z,13.41
2018-08-13T01:45:21.566Z,13.42
2018-08-13T01:46:56.849Z,13.46
2018-08-13T01:48:33.814Z,13.52
2018-08-13T01:50:13.544Z,13.55
2018-08-13T01:51:48.379Z,13.52
2018-08-13T01:53:25.105Z,13.58
2018-08-13T01:55:00.004Z,13.55
2018-08-13T01:56:37.485Z,13.52
2018-08-13T01:58:12.443Z,13.49
2018-08-13T01:59:49.339Z,13.53
2018-08-13T02:01:25.618Z,13.58
2018-08-13T02:03:00.475Z,13.53
2018-08-13T02:04:47.103Z,13.51
2018-08-13T02:06:22.289Z,13.55
2018-08-13T02:08:01.062Z,13.56
2018-08-13T02:09:38.547Z,13.63
2018-08-13T02:11:14.332Z,13.54
2018-08-13T02:12:50.006Z,13.55
2018-08-13T02:14:25.963Z,13.54
2018-08-13T02:16:01.588Z,13.53
2018-08-13T02:17:36.569Z,13.60
2018-08-13T02:19:13.992Z,13.59
2018-08-13T02:20:48.961Z,13.57
2018-08-13T02:22:24.902Z,13.56
2018-08-13T02:23:59.868Z,13.62
2018-08-13T02:25:34.811Z,13.59
2018-08-13T02:27:10.011Z,13.65
2018-08-13T02:28:44.946Z,13.65
2018-08-13T02:30:19.790Z,13.67
2018-08-13T02:31:55.020Z,13.71
2018-08-13T02:33:30.075Z,13.63
2018-08-13T02:35:07.081Z,13.73
2018-08-13T02:36:42.269Z,13.79
2018-08-13T02:38:20.158Z,13.73
2018-08-13T02:39:54.975Z,13.81
2018-08-13T02:41:30.451Z,13.87
2018-08-13T02:43:05.299Z,13.83
2018-08-13T02:44:40.302Z,13.84
2018-08-13T02:46:15.297Z,13.93
2018-08-13T02:47:50.886Z,13.97
2018-08-13T02:49:28.595Z,13.97
2018-08-13T02:51:03.654Z,13.95
2018-08-13T02:52:38.842Z,13.91
2018-08-13T02:54:15.660Z,13.90
2018-08-13T02:55:51.727Z,13.82
2018-08-13T02:57:26.919Z,13.82
2018-08-13T02:59:01.966Z,13.75
2018-08-13T03:00:37.906Z,13.73
2018-08-13T03:02:13.012Z,13.66
2018-08-13T03:03:47.981Z,13.67
2018-08-13T03:05:23.694Z,13.78
2018-08-13T03:06:58.667Z,13.77
2018-08-13T03:08:33.750Z,13.83
2018-08-13T03:10:11.163Z,13.81
2018-08-13T03:11:46.247Z,13.80
2018-08-13T03:13:21.521Z,13.81
2018-08-13T03:14:56.619Z,13.75
2018-08-13T03:16:31.559Z,13.74
2018-08-13T03:18:07.835Z,13.72
2018-08-13T03:19:42.701Z,13.74
2018-08-13T03:21:23.483Z,13.68
2018-08-13T03:22:59.117Z,13.68
2018-08-13T03:24:34.010Z,13.70
2018-08-13T03:26:16.562Z,13.75
2018-08-13T03:27:52.243Z,13.73
2018-08-13T03:29:30.702Z,13.79
2018-08-13T03:31:05.636Z,13.78
2018-08-13T03:32:40.835Z,13.76
2018-08-13T03:34:15.766Z,13.76
2018-08-13T03:35:51.404Z,13.73
2018-08-13T03:37:26.590Z,13.87
2018-08-13T03:39:02.266Z,13.95
2018-08-13T03:40:37.247Z,13.92
2018-08-13T03:42:12.741Z,13.92
2018-08-13T03:43:47.839Z,13.89
2018-08-13T03:45:24.608Z,13.93
2018-08-13T03:47:00.234Z,13.96
2018-08-13T03:48:35.146Z,14.04
2018-08-13T03:50:11.599Z,14.10
2018-08-13T03:51:46.470Z,14.24
2018-08-13T03:53:25.133Z,14.30
2018-08-13T03:55:01.111Z,14.31
2018-08-13T03:56:35.960Z,14.42
2018-08-13T03:58:10.925Z,14.54
2018-08-13T03:59:45.863Z,14.61
2018-08-13T04:01:21.845Z,14.56
2018-08-13T04:02:56.983Z,14.55
2018-08-13T04:04:33.440Z,14.60
2018-08-13T04:06:08.493Z,14.63
2018-08-13T04:07:46.232Z,14.65
2018-08-13T04:09:21.353Z,14.69
2018-08-13T04:10:57.061Z,14.79
2018-08-13T04:12:32.031Z,14.86
2018-08-13T04:14:08.212Z,14.87
2018-08-13T04:15:45.041Z,14.89
2018-08-13T04:17:20.337Z,14.97
2018-08-13T04:18:56.824Z,15.01
2018-08-13T04:20:32.691Z,15.08
2018-08-13T04:22:07.605Z,15.14
2018-08-13T04:23:43.592Z,15.23
2018-08-13T04:25:21.714Z,15.29
2018-08-13T04:26:56.678Z,15.37
2018-08-13T04:28:34.679Z,15.41
2018-08-13T04:30:16.700Z,15.47
2018-08-13T04:31:51.570Z,15.51
2018-08-13T04:33:30.327Z,15.58
2018-08-13T04:35:05.325Z,15.69
2018-08-13T04:36:40.271Z,15.72
2018-08-13T04:38:15.120Z,15.72
2018-08-13T04:39:51.180Z,15.85
2018-08-13T04:41:26.467Z,16.02
2018-08-13T04:43:01.442Z,16.12
2018-08-13T04:44:37.336Z,16.16
2018-08-13T04:46:12.283Z,16.23
2018-08-13T04:47:50.354Z,16.25
2018-08-13T04:49:25.558Z,16.31
2018-08-13T04:51:00.611Z,16.33
2018-08-13T04:52:37.943Z,16.38
2018-08-13T04:54:12.791Z,16.48
2018-08-13T04:55:48.669Z,16.56
2018-08-13T04:57:24.120Z,16.62
2018-08-13T04:59:00.668Z,16.71
2018-08-13T05:00:35.578Z,16.73
2018-08-13T05:02:10.612Z,16.74
2018-08-13T05:03:45.820Z,16.78
2018-08-13T05:05:21.255Z,16.77
2018-08-13T05:06:56.216Z,16.79
2018-08-13T05:08:31.327Z,16.81
2018-08-13T05:10:07.315Z,16.81
2018-08-13T05:11:43.951Z,16.87
2018-08-13T05:13:19.339Z,16.86
2018-08-13T05:14:54.472Z,16.90
2018-08-13T05:16:29.374Z,16.86
2018-08-13T05:18:04.272Z,16.92
2018-08-13T05:19:39.193Z,16.89
2018-08-13T05:21:14.529Z,16.88
2018-08-13T05:22:49.472Z,16.89
2018-08-13T05:24:24.374Z,16.88
2018-08-13T05:26:00.578Z,16.85
2018-08-13T05:27:36.231Z,16.84
2018-08-13T05:29:14.297Z,16.84
2018-08-13T05:30:49.713Z,16.88
2018-08-13T05:32:24.742Z,16.94
2018-08-13T05:34:01.049Z,17.00
2018-08-13T05:35:37.556Z,17.01
2018-08-13T05:37:13.745Z,17.05
2018-08-13T05:38:48.761Z,17.01
2018-08-13T05:40:23.590Z,17.09
2018-08-13T05:42:01.137Z,17.08
2018-08-13T05:43:36.349Z,17.16
2018-08-13T05:45:15.226Z,17.23
2018-08-13T05:46:50.257Z,17.25
2018-08-13T05:48:27.674Z,17.31
2018-08-13T05:50:05.288Z,17.31
2018-08-13T05:51:41.466Z,17.34
2018-08-13T05:53:17.237Z,17.40
2018-08-13T05:54:53.701Z,17.45
2018-08-13T05:56:31.648Z,17.47
2018-08-13T05:58:08.278Z,17.51
2018-08-13T05:59:43.289Z,17.48
2018-08-13T06:01:22.670Z,17.52
2018-08-13T06:02:58.452Z,17.54
2018-08-13T06:04:36.887Z,17.42
2018-08-13T06:06:14.607Z,17.31
2018-08-13T06:07:57.211Z,17.31
2018-08-13T06:09:34.651Z,17.27
2018-08-13T06:11:09.676Z,17.17
2018-08-13T06:12:45.999Z,17.04
2018-08-13T06:14:22.764Z,16.99
2018-08-13T06:15:59.095Z,16.98
2018-08-13T06:17:35.407Z,16.90
2018-08-13T06:19:11.690Z,16.74
2018-08-13T06:20:48.501Z,16.64
2018-08-13T06:22:24.605Z,16.58
2018-08-13T06:24:03.543Z,16.65
2018-08-13T06:25:40.073Z,16.61
2018-08-13T06:27:21.990Z,16.47
2018-08-13T06:28:59.002Z,16.36
2018-08-13T06:30:36.850Z,16.34
2018-08-13T06:32:15.468Z,16.20
2018-08-13T06:33:50.526Z,16.21
2018-08-13T06:35:29.106Z,16.18
2018-08-13T06:37:06.550Z,16.18
2018-08-13T06:38:45.542Z,16.15
2018-08-13T06:40:22.600Z,16.07
2018-08-13T06:42:01.702Z,15.97
2018-08-13T06:43:37.068Z,15.90
2018-08-13T06:45:16.025Z,15.86
2018-08-13T06:46:52.915Z,15.82
2018-08-13T06:48:28.891Z,15.75
2018-08-13T06:50:03.965Z,15.64
2018-08-13T06:51:39.534Z,15.61
2018-08-13T06:53:16.892Z,15.67
2018-08-13T06:54:51.970Z,15.65
2018-08-13T06:56:29.141Z,15.71
2018-08-13T06:58:04.753Z,15.69
2018-08-13T06:59:40.277Z,15.67
2018-08-13T07:01:17.639Z,15.69
2018-08-13T07:02:52.672Z,15.68
2018-08-13T07:04:28.925Z,15.67
2018-08-13T07:06:04.881Z,15.63
2018-08-13T07:07:42.476Z,15.64
2018-08-13T07:09:33.104Z,15.58
2018-08-13T07:11:08.741Z,15.52
2018-08-13T07:12:47.162Z,15.52
2018-08-13T07:14:25.645Z,15.60
2018-08-13T07:16:01.461Z,15.59
2018-08-13T07:17:39.239Z,15.49
2018-08-13T07:19:14.625Z,15.50
2018-08-13T07:20:51.270Z,15.50
2018-08-13T07:22:30.264Z,15.49
2018-08-13T07:24:06.614Z,15.45
2018-08-13T07:25:47.155Z,15.43
2018-08-13T07:27:22.381Z,15.44
2018-08-13T07:28:57.468Z,15.43
2018-08-13T07:30:35.266Z,15.47
2018-08-13T07:32:10.714Z,15.44
2018-08-13T07:33:46.774Z,15.48
2018-08-13T07:35:21.834Z,15.49
2018-08-13T07:37:00.784Z,15.55
2018-08-13T07:38:36.448Z,15.62
2018-08-13T07:40:15.356Z,15.65
2018-08-13T07:41:50.471Z,15.71
2018-08-13T07:43:29.443Z,15.74
2018-08-13T07:45:14.636Z,15.78
2018-08-13T07:46:52.661Z,15.89
2018-08-13T07:48:28.154Z,15.89
2018-08-13T07:50:06.719Z,15.91
2018-08-13T07:51:43.003Z,16.01
2018-08-13T07:53:18.261Z,16.01
2018-08-13T07:54:55.422Z,16.00
2018-08-13T07:56:37.284Z,16.10
2018-08-13T07:58:12.666Z,16.21
2018-08-13T07:59:53.156Z,16.28
2018-08-13T08:01:30.555Z,16.42
2018-08-13T08:03:09.858Z,16.51
2018-08-13T08:04:45.421Z,16.59
2018-08-13T08:06:28.336Z,16.71
2018-08-13T08:08:11.434Z,16.76
2018-08-13T08:09:49.365Z,16.80
2018-08-13T08:11:28.675Z,17.02
2018-08-13T08:13:07.301Z,17.04
2018-08-13T08:14:46.144Z,17.26
2018-08-13T08:16:23.637Z,17.33
2018-08-13T08:18:00.334Z,17.43
2018-08-13T08:19:38.778Z,17.41
2018-08-13T08:21:14.540Z,17.52
2018-08-13T08:22:54.775Z,17.60
2018-08-13T08:24:31.267Z,17.77
2018-08-13T08:26:09.272Z,17.83
2018-08-13T08:27:46.452Z,17.82
2018-08-13T08:29:22.456Z,17.93
2018-08-13T08:30:58.849Z,17.97
2018-08-13T08:32:34.342Z,18.09
2018-08-13T08:34:11.913Z,18.20
2018-08-13T08:35:48.535Z,18.22
2018-08-13T08:37:26.303Z,18.32
2018-08-13T08:39:06.328Z,18.38
2018-08-13T08:40:41.618Z,18.40
2018-08-13T08:42:18.235Z,18.29
2018-08-13T08:43:53.790Z,18.37
2018-08-13T08:45:29.184Z,18.40
2018-08-13T08:47:07.665Z,18.36
2018-08-13T08:48:42.602Z,18.41
2018-08-13T08:50:18.597Z,18.36
2018-08-13T08:51:56.722Z,18.38
2018-08-13T08:53:33.976Z,18.26
2018-08-13T08:55:16.632Z,18.20
2018-08-13T08:56:52.965Z,18.18
2018-08-13T08:58:29.974Z,18.14
2018-08-13T09:00:14.627Z,18.09
2018-08-13T09:01:50.837Z,17.94
2018-08-13T09:03:38.294Z,17.90
2018-08-13T09:05:16.941Z,17.90
2018-08-13T09:06:53.112Z,17.96
2018-08-13T09:08:28.774Z,18.22
2018-08-13T09:10:04.493Z,18.31
2018-08-13T09:11:44.286Z,18.35
2018-08-13T09:13:22.817Z,18.42
2018-08-13T09:14:59.858Z,18.54
2018-08-13T09:16:37.247Z,18.54
2018-08-13T09:18:24.152Z,18.58
2018-08-13T09:20:12.653Z,18.59
2018-08-13T09:21:53.395Z,18.63
2018-08-13T09:23:39.364Z,18.71
2018-08-13T09:25:25.328Z,18.85
2018-08-13T09:27:15.696Z,18.77
2018-08-13T09:31:06.241Z,18.95
2018-08-13T09:32:54.226Z,18.94
2018-08-13T09:35:34.496Z,18.93
2018-08-13T09:37:10.684Z,19.00
2018-08-13T09:38:46.210Z,19.12
2018-08-13T09:40:22.107Z,19.07
2018-08-13T09:42:00.125Z,19.06
2018-08-13T09:43:35.556Z,19.13
2018-08-13T09:45:13.361Z,19.15
2018-08-13T09:46:50.738Z,19.11
2018-08-13T09:48:26.073Z,19.03
2018-08-13T09:50:07.494Z,19.05
2018-08-13T09:51:42.795Z,18.93
2018-08-13T09:53:20.285Z,19.00
2018-08-13T09:54:56.513Z,19.05
2018-08-13T09:56:35.194Z,19.17
2018-08-13T09:58:13.220Z,19.26
2018-08-13T09:59:52.577Z,19.47
2018-08-13T10:01:30.266Z,19.73
2018-08-13T10:03:06.622Z,19.62
2018-08-13T10:04:41.593Z,19.60
2018-08-13T10:06:18.186Z,19.51
2018-08-13T10:07:54.024Z,19.43
2018-08-13T10:09:31.213Z,19.63
2018-08-13T10:11:09.286Z,19.75
2018-08-13T10:12:45.735Z,19.57
2018-08-13T10:14:22.685Z,19.68
2018-08-13T10:16:02.923Z,19.77
2018-08-13T10:17:41.070Z,19.61
2018-08-13T10:19:15.994Z,19.89
2018-08-13T10:20:54.164Z,19.71
2018-08-13T10:24:15.643Z,19.81
2018-08-13T10:25:52.638Z,19.51
2018-08-13T10:27:27.662Z,19.51
2018-08-13T10:29:07.677Z,19.50
2018-08-13T10:30:44.102Z,19.35
2018-08-13T10:32:22.960Z,19.25
2018-08-13T10:34:02.257Z,19.17
2018-08-13T10:35:49.326Z,19.21
2018-08-13T10:37:28.309Z,19.40
2018-08-13T10:39:07.108Z,19.26
2018-08-13T10:40:48.762Z,19.26
2018-08-13T10:42:26.505Z,19.37
2018-08-13T10:44:11.863Z,19.63
2018-08-13T10:45:47.376Z,19.49
2018-08-13T10:47:23.365Z,19.53
2018-08-13T10:48:59.109Z,19.48
2018-08-13T10:50:35.048Z,19.49
2018-08-13T10:52:14.153Z,19.24
2018-08-13T10:53:53.251Z,19.24
2018-08-13T10:57:24.749Z,18.72
2018-08-13T10:59:01.563Z,18.59
2018-08-13T11:00:39.531Z,18.44
2018-08-13T11:02:15.078Z,18.50
2018-08-13T11:03:55.635Z,18.49
2018-08-13T11:05:32.578Z,18.53
2018-08-13T11:07:14.214Z,18.42
2018-08-13T11:08:49.830Z,18.28
2018-08-13T11:10:27.323Z,18.16
2018-08-13T11:12:07.857Z,18.01
2018-08-13T11:13:43.229Z,18.21
2018-08-13T11:15:29.526Z,18.04
2018-08-13T11:17:07.313Z,17.85
2018-08-13T11:18:54.881Z,17.83
2018-08-13T11:20:32.590Z,17.73
2018-08-13T11:22:16.025Z,17.77
2018-08-13T11:23:53.512Z,17.60
2018-08-13T11:25:35.356Z,17.52
2018-08-13T11:27:13.804Z,17.50
2018-08-13T11:28:51.156Z,17.27
2018-08-13T11:30:28.924Z,17.35
2018-08-13T11:32:12.457Z,17.33
2018-08-13T11:33:50.589Z,17.36
2018-08-13T11:35:30.512Z,17.24
2018-08-13T11:37:09.091Z,17.39
2018-08-13T11:38:44.959Z,17.43
2018-08-13T11:40:24.542Z,17.57
2018-08-13T11:42:01.359Z,17.61
2018-08-13T11:43:41.298Z,17.60
2018-08-13T11:45:19.751Z,17.70
2018-08-13T11:46:59.424Z,17.73
2018-08-13T11:48:36.494Z,17.62
2018-08-13T11:50:21.236Z,17.46
2018-08-13T11:51:58.356Z,17.60
2018-08-13T11:53:41.469Z,17.49
2018-08-13T11:55:24.333Z,17.35
2018-08-13T11:57:02.836Z,17.18
2018-08-13T11:58:43.967Z,17.25
2018-08-13T12:00:19.726Z,17.31
2018-08-13T12:01:56.311Z,17.22
2018-08-13T12:03:33.426Z,17.28
2018-08-13T12:05:13.154Z,17.31
2018-08-13T12:06:50.121Z,17.17
2018-08-13T12:08:25.497Z,17.08
2018-08-13T12:10:03.113Z,17.09
2018-08-13T12:11:39.237Z,17.11
2018-08-13T12:13:19.257Z,17.09
2018-08-13T12:14:58.672Z,17.02
2018-08-13T12:16:33.820Z,17.10
2018-08-13T12:18:10.520Z,17.17
2018-08-13T12:19:47.277Z,17.06
2018-08-13T12:21:22.308Z,17.13
2018-08-13T12:23:00.076Z,17.17
2018-08-13T12:24:37.098Z,17.26
2018-08-13T12:26:16.020Z,17.34
2018-08-13T12:27:56.457Z,17.44
2018-08-13T12:29:32.829Z,17.54
2018-08-13T12:31:18.381Z,17.62
2018-08-13T12:32:59.547Z,17.62
2018-08-13T12:34:35.245Z,17.69
2018-08-13T12:36:13.139Z,17.57
2018-08-13T12:37:48.778Z,17.65
2018-08-13T12:39:25.778Z,17.78
2018-08-13T12:41:03.228Z,17.88
2018-08-13T12:42:39.669Z,17.93
2018-08-13T12:44:15.882Z,18.24
2018-08-13T12:45:51.554Z,18.39
2018-08-13T12:47:26.683Z,18.45
2018-08-13T12:49:03.463Z,18.44
2018-08-13T12:50:39.621Z,18.93
2018-08-13T12:52:20.388Z,19.13
2018-08-13T12:53:58.667Z,19.37
2018-08-13T12:55:34.497Z,19.49
2018-08-13T12:57:09.967Z,19.48
2018-08-13T12:58:46.716Z,19.54
2018-08-13T13:00:22.688Z,19.59
2018-08-13T13:01:59.351Z,19.81
2018-08-13T13:03:34.804Z,20.00
2018-08-13T13:05:19.069Z,20.74
2018-08-13T13:06:56.305Z,21.13
2018-08-13T13:08:35.305Z,21.19
2018-08-13T13:10:19.232Z,21.61
2018-08-13T13:11:57.472Z,21.78
2018-08-13T13:13:34.503Z,21.62
2018-08-13T13:15:32.789Z,21.45
2018-08-13T13:17:18.156Z,21.38
2018-08-13T13:18:54.338Z,21.33
2018-08-13T13:20:31.864Z,21.21
2018-08-13T13:22:07.661Z,21.41
2018-08-13T13:23:45.266Z,21.35
2018-08-13T13:25:21.575Z,20.97
2018-08-13T13:26:59.347Z,21.07
2018-08-13T13:28:36.284Z,20.92
2018-08-13T13:30:17.625Z,20.87
2018-08-13T13:31:54.005Z,20.84
2018-08-13T13:33:33.124Z,20.60
2018-08-13T13:35:09.472Z,20.32
2018-08-13T13:36:47.512Z,19.81
2018-08-13T13:38:27.285Z,19.43
2018-08-13T13:40:09.486Z,19.11
2018-08-13T13:41:47.049Z,18.89
2018-08-13T13:43:26.533Z,18.13
2018-08-13T13:45:09.522Z,17.51
2018-08-13T13:46:44.609Z,17.44
2018-08-13T13:48:21.568Z,17.45
2018-08-13T13:49:58.596Z,17.09
2018-08-13T13:51:35.231Z,16.95
2018-08-13T13:53:12.223Z,16.92
2018-08-13T13:54:51.617Z,16.83
2018-08-13T13:56:30.972Z,16.82
2018-08-13T13:58:07.937Z,16.87
2018-08-13T14:00:48.253Z,16.87
2018-08-13T14:02:25.520Z,16.97
2018-08-13T14:04:02.481Z,17.05
2018-08-13T14:05:40.437Z,17.20
2018-08-13T14:07:19.942Z,17.48
2018-08-13T14:09:00.802Z,17.72
2018-08-13T14:10:40.020Z,17.78
2018-08-13T14:24:43.897Z,18.42
2018-08-13T14:26:22.497Z,18.23
2018-08-13T14:28:03.547Z,18.48
2018-08-13T14:29:38.868Z,18.46
2018-08-13T14:31:17.617Z,18.50
2018-08-13T14:33:02.117Z,18.65
2018-08-13T14:34:42.247Z,18.63
2018-08-13T14:36:36.928Z,18.64
2018-08-13T14:38:36.662Z,18.66
2018-08-13T14:40:14.668Z,18.49
2018-08-13T14:41:52.062Z,19.05
2018-08-13T14:43:29.542Z,19.23
2018-08-13T14:45:08.925Z,19.41
2018-08-13T14:48:31.525Z,19.88
2018-08-13T14:50:10.057Z,20.21
2018-08-13T14:51:47.594Z,20.41
2018-08-13T14:53:25.631Z,20.36
2018-08-13T14:55:05.025Z,20.42
2018-08-13T14:56:45.322Z,20.38
2018-08-13T14:58:26.307Z,20.61
2018-08-13T15:00:08.593Z,20.19
2018-08-13T15:03:42.355Z,20.01
2018-08-13T15:05:52.889Z,19.85
2018-08-13T15:07:30.261Z,19.97
2018-08-13T15:09:09.212Z,20.27
2018-08-13T15:10:49.009Z,20.43
2018-08-13T15:14:07.377Z,20.68
2018-08-13T15:15:44.429Z,20.70
2018-08-13T15:17:22.775Z,20.64
2018-08-13T15:18:59.531Z,20.57
2018-08-13T15:20:35.611Z,20.31
2018-08-13T15:22:11.659Z,20.20
2018-08-13T15:23:47.604Z,19.90
2018-08-13T15:25:26.104Z,19.86
2018-08-13T15:27:09.549Z,19.71
2018-08-13T15:28:47.267Z,19.76
2018-08-13T15:30:27.858Z,19.76
2018-08-13T15:32:05.233Z,19.82
2018-08-13T15:33:45.946Z,19.87
2018-08-13T15:35:25.076Z,19.54
2018-08-13T15:37:01.553Z,19.53
2018-08-13T15:38:39.687Z,19.30
2018-08-13T15:40:16.584Z,19.24
2018-08-13T15:41:54.816Z,19.26
2018-08-13T15:43:32.405Z,19.00
2018-08-13T15:45:12.795Z,18.73
2018-08-13T15:46:49.063Z,18.75
2018-08-13T15:48:25.572Z,19.14
2018-08-13T15:50:01.281Z,19.25
2018-08-13T15:51:39.290Z,19.08
2018-08-13T15:53:20.661Z,19.17
2018-08-13T15:55:01.262Z,18.95
2018-08-13T15:56:40.926Z,18.79
2018-08-13T15:58:17.340Z,18.40
2018-08-13T15:59:58.292Z,18.16
2018-08-13T16:01:41.221Z,18.09
2018-08-13T16:03:19.287Z,18.05
2018-08-13T16:05:03.572Z,18.12
2018-08-13T16:06:46.484Z,18.17
2018-08-13T16:08:35.725Z,18.09
2018-08-13T16:10:21.111Z,18.45
2018-08-13T16:12:03.061Z,18.58
2018-08-13T16:13:55.698Z,18.51
2018-08-13T16:15:52.970Z,18.57
2018-08-13T16:17:34.273Z,18.55
2018-08-13T16:19:15.202Z,18.32
2018-08-13T16:21:00.194Z,18.07
2018-08-13T16:22:42.375Z,18.00
2018-08-13T16:24:22.016Z,17.99
2018-08-13T16:26:01.263Z,18.01
2018-08-13T16:27:39.453Z,17.98
2018-08-13T16:29:21.648Z,18.00
2018-08-13T16:31:09.184Z,17.97
2018-08-13T16:32:53.352Z,17.90
2018-08-13T16:36:38.598Z,18.09
2018-08-13T16:38:18.055Z,18.23
2018-08-13T16:39:56.593Z,18.15
2018-08-13T16:41:34.335Z,18.08
2018-08-13T16:43:15.420Z,18.03
2018-08-13T16:44:53.343Z,18.09
2018-08-13T16:46:41.230Z,18.02
2018-08-13T16:48:21.680Z,18.01
2018-08-13T16:50:02.950Z,18.03
2018-08-13T16:51:52.532Z,18.11
2018-08-13T16:53:29.253Z,17.88
2018-08-13T16:55:06.994Z,17.93
2018-08-13T16:56:43.849Z,17.81
2018-08-13T16:58:21.182Z,17.83
2018-08-13T17:00:00.782Z,17.76
2018-08-13T17:01:43.404Z,17.68
2018-08-13T17:03:26.304Z,17.72
2018-08-13T17:05:02.900Z,17.67
2018-08-13T17:06:40.267Z,17.56
2018-08-13T17:08:41.475Z,17.54
2018-08-13T17:10:25.390Z,17.50
2018-08-13T17:12:06.879Z,17.51
2018-08-13T17:13:51.635Z,17.42
2018-08-13T17:15:31.934Z,17.33
2018-08-13T17:17:23.255Z,17.32
2018-08-13T17:19:06.038Z,17.39
2018-08-13T17:20:55.960Z,17.34
2018-08-13T17:22:41.419Z,17.25
2018-08-13T17:24:28.988Z,17.26
2018-08-13T17:26:06.432Z,17.29
2018-08-13T17:27:43.505Z,17.28
2018-08-13T17:29:23.569Z,17.33
2018-08-13T17:30:59.849Z,17.29
2018-08-13T17:32:38.188Z,17.65
2018-08-13T17:34:19.583Z,17.87
2018-08-13T17:37:56.709Z,18.04
2018-08-13T17:39:33.801Z,18.15
2018-08-13T17:41:11.718Z,18.31
2018-08-13T17:42:49.428Z,18.47
2018-08-13T17:44:25.859Z,18.62
2018-08-13T17:46:06.392Z,18.76
2018-08-13T17:47:47.241Z,18.92
2018-08-13T17:49:30.938Z,18.76
2018-08-13T17:51:07.359Z,18.71
2018-08-13T17:52:44.752Z,18.63
2018-08-13T17:54:22.652Z,18.56
2018-08-13T17:56:00.142Z,18.49
2018-08-13T17:57:39.007Z,18.20
2018-08-13T17:59:17.542Z,18.04
2018-08-13T18:02:37.207Z,18.00
2018-08-13T18:04:13.352Z,17.98
2018-08-13T18:05:50.171Z,18.00
2018-08-13T18:07:28.961Z,18.04
2018-08-13T18:09:05.226Z,17.92
2018-08-13T18:10:45.876Z,17.97
2018-08-13T18:12:21.272Z,17.99
2018-08-13T18:13:58.756Z,17.92
2018-08-13T18:15:37.966Z,17.90
2018-08-13T18:17:15.214Z,17.92
2018-08-13T18:18:52.151Z,17.90
2018-08-13T18:20:28.717Z,17.82
2018-08-13T18:22:10.248Z,17.84
2018-08-13T18:23:53.121Z,17.82
2018-08-13T18:25:28.521Z,17.79
2018-08-13T18:27:07.240Z,17.81
2018-08-13T18:28:44.880Z,17.73
2018-08-13T18:30:28.874Z,17.57
2018-08-13T18:32:05.182Z,17.50
2018-08-13T18:33:40.837Z,17.38
2018-08-13T18:35:16.772Z,17.29
2018-08-13T18:36:54.369Z,17.24
2018-08-13T18:38:30.510Z,17.09
2018-08-13T18:40:11.529Z,16.93
2018-08-13T18:41:48.575Z,16.73
2018-08-13T18:43:25.168Z,16.68
2018-08-13T18:45:06.658Z,16.53
2018-08-13T18:46:43.642Z,16.37
2018-08-13T18:48:19.925Z,16.23
2018-08-13T18:49:57.732Z,16.20
2018-08-13T18:51:34.841Z,16.12
2018-08-13T18:53:18.324Z,15.90
2018-08-13T18:55:12.749Z,15.87
2018-08-13T18:56:51.781Z,15.80
2018-08-13T18:58:34.176Z,15.71
2018-08-13T19:00:15.521Z,15.61
2018-08-13T19:01:52.445Z,15.56
2018-08-13T19:03:29.684Z,15.49
2018-08-13T19:05:06.895Z,15.43
2018-08-13T19:06:45.386Z,15.40
2018-08-13T19:08:23.977Z,15.35
2018-08-13T19:09:59.151Z,15.28
2018-08-13T19:11:37.927Z,15.28
2018-08-13T19:13:14.004Z,15.29
2018-08-13T19:14:53.770Z,15.29
2018-08-13T19:16:32.524Z,15.28
2018-08-13T19:18:15.088Z,15.26
2018-08-13T19:19:51.716Z,15.29
2018-08-13T19:21:27.250Z,15.31
2018-08-13T19:23:14.963Z,15.31
2018-08-13T19:24:51.650Z,15.34
2018-08-13T19:26:31.014Z,15.36
2018-08-13T19:30:00.823Z,15.47
2018-08-13T19:31:47.610Z,15.48
2018-08-13T19:33:24.875Z,15.46
2018-08-13T19:35:08.988Z,15.50
2018-08-13T19:37:00.647Z,15.49
2018-08-13T19:38:43.769Z,15.47
2018-08-13T19:40:26.358Z,15.48
2018-08-13T19:42:11.950Z,15.45
2018-08-13T19:43:53.169Z,15.31
2018-08-13T19:45:28.335Z,15.26
2018-08-13T19:47:05.352Z,15.25
2018-08-13T19:48:47.326Z,15.20
2018-08-13T19:50:24.426Z,15.10
2018-08-13T19:52:03.715Z,15.02
2018-08-13T19:53:43.298Z,14.96
2018-08-13T19:55:25.319Z,14.92
2018-08-13T19:57:05.222Z,14.84
2018-08-13T19:58:45.733Z,14.79
2018-08-13T20:00:26.876Z,14.73
2018-08-13T20:02:08.901Z,14.67
2018-08-13T20:03:49.262Z,14.57
2018-08-13T20:05:33.868Z,14.58
2018-08-13T20:07:11.064Z,14.51
2018-08-13T20:08:47.582Z,14.50
2018-08-13T20:10:25.012Z,14.46
2018-08-13T20:12:03.282Z,14.43
2018-08-13T20:13:40.847Z,14.40
2018-08-13T20:15:21.234Z,14.41
2018-08-13T20:16:58.579Z,14.39
2018-08-13T20:18:39.353Z,14.35
2018-08-13T20:20:25.329Z,14.28
2018-08-13T20:22:05.520Z,14.28
2018-08-13T20:23:41.491Z,14.26
2018-08-13T20:25:27.324Z,14.23
2018-08-13T20:27:08.164Z,14.19
2018-08-13T20:28:51.560Z,14.21
2018-08-13T20:30:31.990Z,14.23
2018-08-13T20:32:11.270Z,14.22
2018-08-13T20:33:50.016Z,14.18
2018-08-13T20:35:29.051Z,14.19
2018-08-13T20:37:09.705Z,14.17
2018-08-13T20:38:54.066Z,14.13
2018-08-13T20:42:37.211Z,14.12
2018-08-13T20:44:15.032Z,14.19
2018-08-13T20:45:56.732Z,14.17
2018-08-13T20:47:39.227Z,14.19
2018-08-13T20:49:16.245Z,14.21
2018-08-13T20:50:54.837Z,14.24
2018-08-13T20:52:31.261Z,14.27
2018-08-13T20:54:09.303Z,14.24
2018-08-13T20:56:02.012Z,14.20
2018-08-13T20:57:40.507Z,14.19
2018-08-13T20:59:19.305Z,14.15
2018-08-13T21:01:08.398Z,14.07
2018-08-13T21:02:55.209Z,14.05
2018-08-13T21:04:41.619Z,13.95
2018-08-13T21:12:24.637Z,13.93
2018-08-13T21:14:14.852Z,13.74
2018-08-13T21:15:56.856Z,13.73
2018-08-13T21:17:40.564Z,13.65
2018-08-13T21:19:23.153Z,13.63
2018-08-13T21:21:04.629Z,13.61
2018-08-13T21:22:41.909Z,13.53
2018-08-13T21:24:24.565Z,13.53
2018-08-13T21:26:05.218Z,13.43
2018-08-13T21:29:48.836Z,13.37
2018-08-13T21:31:26.920Z,13.25
2018-08-13T21:33:22.103Z,13.27
2018-08-13T21:35:07.306Z,13.27
2018-08-13T21:36:45.491Z,13.35
2018-08-13T21:38:27.753Z,13.31
2018-08-13T21:40:11.734Z,13.30
2018-08-13T21:42:00.343Z,13.25
2018-08-13T21:43:36.320Z,13.17
2018-08-13T21:45:16.295Z,13.20
2018-08-13T21:46:57.791Z,13.15
2018-08-13T21:48:41.313Z,13.19
2018-08-13T21:50:20.482Z,13.19
2018-08-13T21:52:04.573Z,13.32
2018-08-13T21:53:41.953Z,13.31
2018-08-13T21:55:31.846Z,13.36
2018-08-13T21:57:12.500Z,13.33
2018-08-13T21:58:50.524Z,13.39